Time;durP1;ratioP1;P1;durP2;ratioP2;P2;SDS_P1;SDS_P2;PMS_P1;PMS_P2;Temp;Humidity;BMP_temperature;BMP_pressure;BME280_temperature;BME280_humidity;BME280_pressure;Samples;Min_cycle;Max_cycle;Signal;HPM_P1;HPM_P2
2021/12/14 00:01:08;;;;;;;39.75;25.65;;;;;;;;;;5052203;28;20013;-77
2021/12/14 00:03:34;;;;;;;43.25;26.15;;;;;;;;;;5049189;28;20022;-75
2021/12/14 00:06:00;;;;;;;46.25;25.45;;;;;;;;;;5054932;28;20044;-77
2021/12/14 00:08:31;;;;;;;39.97;24.77;;;;;;;;;;5053394;28;20055;-75
2021/12/14 00:11:52;;;;;;;45.75;25.40;;;;;;;;;;5045804;28;20121;-80
2021/12/14 00:13:53;;;;;;;36.92;24.17;;;;;;;;;;5043263;28;20025;-78
2021/12/14 00:16:19;;;;;;;42.47;25.80;;;;;;;;;;5043404;28;20600;-80
2021/12/14 00:18:45;;;;;;;43.95;24.13;;;;;;;;;;5043552;28;20604;-78
2021/12/14 00:21:19;;;;;;;41.22;24.50;;;;;;;;;;5042533;28;20101;-78
2021/12/14 00:26:31;;;;;;;42.75;25.48;;;;;;;;;;5042727;28;20028;-79
2021/12/14 00:28:57;;;;;;;44.83;25.55;;;;;;;;;;5050314;28;20026;-77
2021/12/14 00:31:25;;;;;;;42.55;25.90;;;;;;;;;;5043373;28;20044;-78
2021/12/14 00:33:54;;;;;;;45.00;25.25;;;;;;;;;;5042504;28;20021;-79
2021/12/14 00:36:21;;;;;;;48.75;25.20;;;;;;;;;;5041608;28;20120;-78
2021/12/14 00:38:51;;;;;;;43.13;24.15;;;;;;;;;;5042675;28;20021;-79
2021/12/14 00:41:19;;;;;;;39.90;26.00;;;;;;;;;;5041938;28;20037;-78
2021/12/14 00:43:45;;;;;;;42.17;24.90;;;;;;;;;;5042142;28;20025;-79
2021/12/14 00:46:13;;;;;;;39.05;23.67;;;;;;;;;;5040803;28;20029;-79
2021/12/14 00:48:41;;;;;;;43.67;24.52;;;;;;;;;;5041410;28;20105;-78
2021/12/14 00:51:07;;;;;;;44.67;24.88;;;;;;;;;;5042197;28;20049;-77
2021/12/14 00:53:34;;;;;;;42.33;24.33;;;;;;;;;;5042422;28;20520;-77
2021/12/14 00:56:01;;;;;;;43.60;24.10;;;;;;;;;;5040152;28;20029;-76
2021/12/14 00:58:27;;;;;;;36.72;24.00;;;;;;;;;;5048407;28;20017;-79
2021/12/14 01:01:07;;;;;;;42.63;24.52;;;;;;;;;;5043042;28;20030;-78
2021/12/14 01:03:34;;;;;;;40.33;23.25;;;;;;;;;;5040913;28;20047;-77
2021/12/14 01:06:01;;;;;;;39.80;23.88;;;;;;;;;;5041295;28;20083;-79
2021/12/14 01:08:31;;;;;;;39.22;24.13;;;;;;;;;;5043513;28;20018;-77
2021/12/14 01:11:05;;;;;;;41.67;24.77;;;;;;;;;;5045989;28;20104;-76
2021/12/14 01:13:33;;;;;;;37.65;23.48;;;;;;;;;;5044179;28;20100;-77
2021/12/14 01:16:13;;;;;;;52.70;23.65;;;;;;;;;;5041396;28;20028;-77
2021/12/14 01:21:47;;;;;;;38.40;23.33;;;;;;;;;;5045289;28;20064;-77
2021/12/14 01:24:51;;;;;;;46.75;24.02;;;;;;;;;;5043449;28;20091;-77
2021/12/14 01:27:03;;;;;;;41.65;23.35;;;;;;;;;;5046976;28;20029;-76
2021/12/14 01:29:30;;;;;;;38.97;23.52;;;;;;;;;;5050362;28;20088;-76
2021/12/14 01:32:00;;;;;;;40.47;24.00;;;;;;;;;;5053889;28;20020;-76
2021/12/14 01:34:27;;;;;;;39.13;24.25;;;;;;;;;;5054167;28;20022;-75
2021/12/14 01:36:57;;;;;;;38.88;24.10;;;;;;;;;;5049690;28;20029;-76
2021/12/14 01:42:32;;;;;;;40.45;23.48;;;;;;;;;;5040592;28;20097;-77
2021/12/14 01:45:00;;;;;;;39.67;23.00;;;;;;;;;;4986085;28;20049;-76
2021/12/14 01:47:28;;;;;;;35.80;22.30;;;;;;;;;;5030152;28;20048;-77
2021/12/14 01:49:54;;;;;;;40.45;24.27;;;;;;;;;;5042066;28;20024;-79
2021/12/14 01:52:22;;;;;;;41.85;23.70;;;;;;;;;;5041865;28;20018;-79
2021/12/14 01:54:50;;;;;;;44.67;23.77;;;;;;;;;;5039261;28;20048;-76
2021/12/14 01:57:18;;;;;;;38.72;22.15;;;;;;;;;;5043890;28;20033;-77
2021/12/14 01:59:45;;;;;;;37.33;23.02;;;;;;;;;;5046651;28;20037;-77
2021/12/14 02:02:29;;;;;;;42.45;22.98;;;;;;;;;;5043238;28;20085;-78
2021/12/14 02:04:55;;;;;;;37.88;23.38;;;;;;;;;;5040746;28;20018;-77
2021/12/14 02:07:22;;;;;;;40.00;23.00;;;;;;;;;;5040122;28;20025;-77
2021/12/14 02:09:54;;;;;;;38.65;22.88;;;;;;;;;;5040245;28;20030;-79
2021/12/14 02:12:21;;;;;;;37.38;23.00;;;;;;;;;;5041944;28;20021;-79
2021/12/14 02:14:48;;;;;;;46.15;24.55;;;;;;;;;;5044369;28;20028;-78
2021/12/14 02:17:17;;;;;;;44.80;22.92;;;;;;;;;;5039622;28;20394;-78
2021/12/14 02:19:43;;;;;;;42.25;23.33;;;;;;;;;;5046143;28;20029;-74
2021/12/14 02:22:09;;;;;;;39.45;24.75;;;;;;;;;;5045468;28;20121;-80
2021/12/14 02:24:37;;;;;;;39.78;24.67;;;;;;;;;;5037270;28;20028;-78
2021/12/14 02:27:03;;;;;;;42.45;24.33;;;;;;;;;;5039079;28;20028;-78
2021/12/14 02:29:32;;;;;;;46.78;24.30;;;;;;;;;;5039823;28;20070;-78
2021/12/14 02:32:19;;;;;;;39.20;24.08;;;;;;;;;;5039907;28;20528;-78
2021/12/14 02:35:01;;;;;;;38.88;24.42;;;;;;;;;;5036628;28;20017;-77
2021/12/14 02:37:44;;;;;;;42.22;25.42;;;;;;;;;;5039654;28;20025;-78
2021/12/14 02:40:31;;;;;;;41.97;24.38;;;;;;;;;;5042187;28;20036;-79
2021/12/14 02:42:58;;;;;;;42.88;23.65;;;;;;;;;;5041065;28;20049;-76
2021/12/14 02:45:24;;;;;;;41.83;25.02;;;;;;;;;;5051047;28;20060;-74
2021/12/14 02:47:50;;;;;;;42.42;24.83;;;;;;;;;;5043663;28;20025;-78
2021/12/14 02:50:18;;;;;;;45.15;24.60;;;;;;;;;;5035850;28;20026;-75
2021/12/14 02:52:44;;;;;;;50.35;25.70;;;;;;;;;;5038164;28;20386;-78
2021/12/14 02:55:13;;;;;;;40.22;25.52;;;;;;;;;;5038006;28;20096;-79
2021/12/14 02:57:42;;;;;;;43.88;25.70;;;;;;;;;;5036980;28;20041;-78
2021/12/14 03:00:10;;;;;;;40.22;24.95;;;;;;;;;;5037453;28;20482;-79
2021/12/14 03:02:36;;;;;;;41.75;25.90;;;;;;;;;;5038936;28;20025;-78
2021/12/14 03:05:12;;;;;;;43.22;26.17;;;;;;;;;;5038193;28;20025;-78
2021/12/14 03:07:43;;;;;;;43.10;24.35;;;;;;;;;;5038204;28;20029;-78
2021/12/14 03:12:47;;;;;;;45.33;24.27;;;;;;;;;;5038575;28;20120;-79
2021/12/14 03:15:13;;;;;;;44.95;25.20;;;;;;;;;;5035486;28;20029;-79
2021/12/14 03:17:39;;;;;;;42.00;25.00;;;;;;;;;;5036669;28;20029;-79
2021/12/14 03:20:08;;;;;;;42.83;25.35;;;;;;;;;;5036497;28;20088;-79
2021/12/14 03:22:38;;;;;;;39.55;24.92;;;;;;;;;;5038033;28;20080;-80
2021/12/14 03:25:06;;;;;;;42.92;25.55;;;;;;;;;;5039958;28;20039;-79
2021/12/14 03:27:32;;;;;;;39.92;24.13;;;;;;;;;;5054101;28;20021;-80
2021/12/14 03:29:58;;;;;;;38.40;22.60;;;;;;;;;;5052312;28;20076;-77
2021/12/14 03:32:24;;;;;;;39.22;24.08;;;;;;;;;;5054898;28;20037;-77
2021/12/14 03:34:50;;;;;;;39.60;24.98;;;;;;;;;;5054291;28;20022;-78
2021/12/14 03:37:21;;;;;;;39.92;23.45;;;;;;;;;;5054796;28;20017;-78
2021/12/14 03:39:49;;;;;;;40.13;23.42;;;;;;;;;;5054962;28;20044;-79
2021/12/14 03:42:15;;;;;;;43.35;24.85;;;;;;;;;;5043381;28;20060;-79
2021/12/14 03:44:46;;;;;;;39.88;24.25;;;;;;;;;;5042488;28;20052;-79
2021/12/14 03:47:17;;;;;;;39.83;23.33;;;;;;;;;;5039042;28;20312;-80
2021/12/14 03:49:48;;;;;;;49.70;25.10;;;;;;;;;;5039402;28;20025;-78
2021/12/14 03:52:16;;;;;;;42.50;24.25;;;;;;;;;;5041763;28;20026;-80
2021/12/14 03:54:42;;;;;;;40.38;22.65;;;;;;;;;;5038746;28;20032;-79
2021/12/14 03:57:08;;;;;;;44.83;24.98;;;;;;;;;;5039298;28;20037;-78
2021/12/14 03:59:35;;;;;;;41.10;24.15;;;;;;;;;;5042442;28;20037;-79
2021/12/14 04:02:03;;;;;;;38.15;24.23;;;;;;;;;;5044660;28;20036;-78
2021/12/14 04:04:32;;;;;;;39.95;24.48;;;;;;;;;;5054455;28;20017;-78
2021/12/14 04:07:00;;;;;;;39.90;24.60;;;;;;;;;;5045018;28;20367;-78
2021/12/14 04:09:27;;;;;;;36.80;22.58;;;;;;;;;;5042174;28;20471;-77
2021/12/14 04:11:53;;;;;;;37.85;23.70;;;;;;;;;;5042746;28;20021;-79
2021/12/14 04:14:20;;;;;;;37.60;24.15;;;;;;;;;;5043780;28;20029;-77
2021/12/14 04:16:48;;;;;;;35.80;23.23;;;;;;;;;;5052699;28;20037;-78
2021/12/14 04:19:15;;;;;;;42.78;24.40;;;;;;;;;;5052092;28;20026;-76
2021/12/14 04:21:43;;;;;;;37.45;22.83;;;;;;;;;;5041153;28;20032;-76
2021/12/14 04:24:10;;;;;;;41.03;23.48;;;;;;;;;;5038319;28;20026;-78
2021/12/14 04:26:37;;;;;;;40.70;23.02;;;;;;;;;;5037729;28;20490;-77
2021/12/14 04:29:04;;;;;;;44.55;23.35;;;;;;;;;;5035701;28;20029;-77
2021/12/14 04:31:33;;;;;;;40.50;24.15;;;;;;;;;;5034800;28;20029;-76
2021/12/14 04:33:59;;;;;;;39.38;23.25;;;;;;;;;;5035647;28;20026;-77
2021/12/14 04:36:27;;;;;;;41.03;23.45;;;;;;;;;;5035852;28;20022;-79
2021/12/14 04:39:06;;;;;;;42.80;23.50;;;;;;;;;;5038056;28;20506;-77
2021/12/14 04:52:35;;;;;;;40.22;23.83;;;;;;;;;;5035133;28;20041;-78
2021/12/14 04:55:06;;;;;;;42.97;22.83;;;;;;;;;;5045969;28;20022;-77
2021/12/14 04:57:32;;;;;;;41.83;22.85;;;;;;;;;;5038456;28;20033;-76
2021/12/14 05:00:14;;;;;;;38.28;21.75;;;;;;;;;;5037539;28;20105;-78
2021/12/14 05:02:40;;;;;;;43.35;23.23;;;;;;;;;;5039390;28;20036;-77
2021/12/14 05:05:06;;;;;;;39.15;22.65;;;;;;;;;;5037600;28;20029;-77
2021/12/14 05:09:59;;;;;;;33.38;21.30;;;;;;;;;;5039838;28;20060;-77
2021/12/14 05:12:30;;;;;;;39.97;21.98;;;;;;;;;;5042773;28;20053;-77
2021/12/14 05:14:56;;;;;;;37.25;22.27;;;;;;;;;;5047205;28;20047;-77
2021/12/14 05:17:24;;;;;;;35.58;21.48;;;;;;;;;;5044794;28;20033;-78
2021/12/14 05:19:51;;;;;;;40.50;22.58;;;;;;;;;;5050818;28;20089;-78
2021/12/14 05:22:19;;;;;;;40.15;22.75;;;;;;;;;;5043808;28;20047;-77
2021/12/14 05:24:48;;;;;;;35.97;21.67;;;;;;;;;;5049335;28;20044;-76
2021/12/14 05:27:16;;;;;;;34.33;20.70;;;;;;;;;;5044956;28;20037;-78
2021/12/14 05:29:42;;;;;;;33.78;21.60;;;;;;;;;;5037998;28;20442;-77
2021/12/14 05:32:09;;;;;;;34.47;21.55;;;;;;;;;;5041306;28;20313;-78
2021/12/14 05:34:36;;;;;;;35.17;21.25;;;;;;;;;;5040958;28;20411;-77
2021/12/14 05:37:02;;;;;;;35.92;20.92;;;;;;;;;;5035646;28;20124;-78
2021/12/14 05:39:47;;;;;;;36.65;21.95;;;;;;;;;;5038084;28;20455;-77
2021/12/14 05:45:01;;;;;;;36.25;21.92;;;;;;;;;;5039687;28;20040;-77
2021/12/14 05:47:27;;;;;;;40.25;21.08;;;;;;;;;;5050492;28;20072;-77
2021/12/14 05:49:53;;;;;;;34.70;21.30;;;;;;;;;;5051043;28;20139;-77
2021/12/14 05:52:21;;;;;;;34.75;20.80;;;;;;;;;;5047943;28;20026;-77
2021/12/14 05:54:48;;;;;;;35.40;21.60;;;;;;;;;;5047354;28;20037;-78
2021/12/14 05:57:16;;;;;;;37.55;21.33;;;;;;;;;;5043020;28;20040;-79
2021/12/14 05:59:43;;;;;;;35.83;20.65;;;;;;;;;;5050958;28;20017;-77
2021/12/14 06:02:09;;;;;;;30.85;21.00;;;;;;;;;;5047627;28;20029;-77
2021/12/14 06:04:38;;;;;;;36.10;21.35;;;;;;;;;;5047460;28;20060;-77
2021/12/14 06:07:05;;;;;;;33.63;21.45;;;;;;;;;;5039366;28;20034;-78
2021/12/14 06:09:35;;;;;;;35.15;20.65;;;;;;;;;;5040199;28;20067;-78
2021/12/14 06:12:06;;;;;;;33.20;19.98;;;;;;;;;;5050803;28;20032;-76
2021/12/14 06:14:32;;;;;;;39.63;21.20;;;;;;;;;;5056731;28;20089;-77
2021/12/14 06:17:00;;;;;;;42.47;21.27;;;;;;;;;;5054396;28;20062;-77
2021/12/14 06:19:31;;;;;;;34.40;21.45;;;;;;;;;;5053288;28;20188;-76
2021/12/14 06:22:01;;;;;;;38.72;22.35;;;;;;;;;;5053283;28;20071;-76
2021/12/14 06:24:28;;;;;;;35.45;21.70;;;;;;;;;;5056048;28;20025;-78
2021/12/14 06:26:55;;;;;;;35.95;21.88;;;;;;;;;;5053023;28;20029;-77
2021/12/14 06:29:23;;;;;;;32.97;22.00;;;;;;;;;;5055590;28;20025;-76
2021/12/14 06:31:49;;;;;;;40.85;21.55;;;;;;;;;;5055422;28;20133;-75
2021/12/14 06:34:21;;;;;;;34.08;20.98;;;;;;;;;;5049999;28;20087;-77
2021/12/14 06:37:03;;;;;;;38.60;22.83;;;;;;;;;;5049510;28;20032;-77
2021/12/14 06:39:29;;;;;;;34.95;22.40;;;;;;;;;;5047032;28;20032;-79
2021/12/14 06:42:05;;;;;;;38.75;22.98;;;;;;;;;;5045108;28;20033;-80
2021/12/14 06:44:31;;;;;;;38.47;23.08;;;;;;;;;;5041798;28;20033;-74
2021/12/14 06:46:57;;;;;;;40.47;23.65;;;;;;;;;;5037896;28;20025;-78
2021/12/14 06:49:23;;;;;;;38.00;23.30;;;;;;;;;;5037255;28;20028;-77
2021/12/14 06:51:51;;;;;;;36.92;23.55;;;;;;;;;;5042628;28;20036;-78
2021/12/14 06:54:19;;;;;;;41.00;25.20;;;;;;;;;;5041087;28;20026;-79
2021/12/14 06:56:49;;;;;;;39.97;25.85;;;;;;;;;;5036790;28;20033;-78
2021/12/14 06:59:16;;;;;;;43.67;24.75;;;;;;;;;;5037140;28;20406;-77
2021/12/14 07:01:44;;;;;;;43.80;24.33;;;;;;;;;;5038099;28;20052;-77
2021/12/14 07:04:12;;;;;;;42.75;25.65;;;;;;;;;;5037910;28;20037;-78
2021/12/14 07:06:40;;;;;;;45.78;25.92;;;;;;;;;;5039532;28;20021;-77
2021/12/14 07:09:11;;;;;;;37.70;24.80;;;;;;;;;;5042809;28;20026;-77
2021/12/14 07:11:38;;;;;;;45.03;25.80;;;;;;;;;;5041113;28;20017;-78
2021/12/14 07:14:07;;;;;;;42.80;26.15;;;;;;;;;;5040211;28;20022;-77
2021/12/14 07:16:38;;;;;;;42.78;26.75;;;;;;;;;;5039668;28;20052;-78
2021/12/14 07:19:06;;;;;;;41.88;25.85;;;;;;;;;;5043232;28;20086;-77
2021/12/14 07:21:38;;;;;;;41.17;26.55;;;;;;;;;;5032939;28;20033;-79
2021/12/14 07:24:27;;;;;;;38.47;24.60;;;;;;;;;;5035193;28;20103;-76
2021/12/14 07:27:12;;;;;;;46.60;26.33;;;;;;;;;;5033935;28;20557;-78
2021/12/14 07:29:38;;;;;;;48.58;27.65;;;;;;;;;;5039221;28;20022;-77
2021/12/14 07:32:04;;;;;;;43.10;26.80;;;;;;;;;;5037630;28;20048;-77
2021/12/14 07:34:30;;;;;;;51.63;28.92;;;;;;;;;;5036477;28;20022;-77
2021/12/14 07:36:56;;;;;;;49.90;29.10;;;;;;;;;;5034515;28;20022;-76
2021/12/14 07:39:22;;;;;;;46.35;28.05;;;;;;;;;;5039190;28;20033;-78
2021/12/14 07:41:48;;;;;;;45.92;28.67;;;;;;;;;;5041132;28;20025;-76
2021/12/14 07:44:14;;;;;;;45.55;28.80;;;;;;;;;;5041627;28;20022;-78
2021/12/14 07:46:42;;;;;;;45.85;28.83;;;;;;;;;;5044035;28;20398;-75
2021/12/14 07:49:28;;;;;;;48.38;29.42;;;;;;;;;;5038590;28;20033;-77
2021/12/14 07:51:56;;;;;;;51.53;30.52;;;;;;;;;;5037478;28;20025;-77
2021/12/14 07:54:24;;;;;;;53.38;30.80;;;;;;;;;;5037803;28;20228;-77
2021/12/14 07:56:52;;;;;;;55.33;31.65;;;;;;;;;;5037040;28;20025;-77
2021/12/14 07:59:20;;;;;;;59.33;32.05;;;;;;;;;;5036501;28;20458;-78
2021/12/14 08:01:46;;;;;;;58.53;31.77;;;;;;;;;;5036190;28;20609;-78
2021/12/14 08:04:13;;;;;;;53.03;31.30;;;;;;;;;;5037648;28;20024;-80
2021/12/14 08:06:51;;;;;;;51.90;31.98;;;;;;;;;;5042070;28;20498;-80
2021/12/14 08:09:32;;;;;;;58.28;32.90;;;;;;;;;;5039419;28;20034;-78
2021/12/14 08:11:59;;;;;;;52.67;30.98;;;;;;;;;;5048625;28;20561;-78
2021/12/14 08:14:26;;;;;;;54.90;30.67;;;;;;;;;;5047456;28;20041;-77
2021/12/14 08:16:59;;;;;;;56.58;32.83;;;;;;;;;;5047721;28;20026;-78
2021/12/14 08:19:42;;;;;;;57.22;32.85;;;;;;;;;;5042443;28;20087;-77
2021/12/14 08:22:13;;;;;;;57.75;31.70;;;;;;;;;;5041748;28;20037;-77
2021/12/14 08:24:40;;;;;;;62.75;34.05;;;;;;;;;;5040522;28;20032;-77
2021/12/14 08:27:08;;;;;;;58.40;33.80;;;;;;;;;;5045578;28;20029;-76
2021/12/14 08:29:35;;;;;;;59.20;33.00;;;;;;;;;;5039460;28;20026;-78
2021/12/14 08:32:08;;;;;;;56.15;31.88;;;;;;;;;;5037982;28;20105;-77
2021/12/14 08:34:36;;;;;;;61.15;34.25;;;;;;;;;;5041284;28;20017;-77
2021/12/14 08:37:07;;;;;;;55.85;32.85;;;;;;;;;;5041279;28;20028;-78
2021/12/14 08:39:38;;;;;;;63.80;35.63;;;;;;;;;;5037285;28;20056;-78
2021/12/14 08:42:11;;;;;;;62.22;35.55;;;;;;;;;;5039691;28;20394;-77
2021/12/14 08:44:40;;;;;;;60.50;34.60;;;;;;;;;;5037158;28;20018;-78
2021/12/14 08:47:09;;;;;;;62.50;34.50;;;;;;;;;;5034761;28;20022;-77
2021/12/14 08:49:35;;;;;;;60.10;33.97;;;;;;;;;;5035932;28;20487;-80
2021/12/14 08:52:02;;;;;;;64.03;35.92;;;;;;;;;;5035880;28;20030;-77
2021/12/14 08:54:29;;;;;;;60.67;34.45;;;;;;;;;;5035864;28;20435;-78
2021/12/14 08:57:03;;;;;;;68.90;34.35;;;;;;;;;;5036516;28;20563;-75
2021/12/14 08:59:29;;;;;;;61.30;34.97;;;;;;;;;;5036319;28;20021;-76
2021/12/14 09:01:56;;;;;;;62.30;35.13;;;;;;;;;;5042139;28;20021;-76
2021/12/14 09:04:30;;;;;;;58.25;32.78;;;;;;;;;;5036195;28;20430;-76
2021/12/14 09:06:57;;;;;;;60.20;34.22;;;;;;;;;;5035020;28;20060;-77
2021/12/14 09:09:24;;;;;;;61.67;35.20;;;;;;;;;;5035020;28;20033;-76
2021/12/14 09:12:02;;;;;;;59.55;34.70;;;;;;;;;;5035506;28;20124;-75
2021/12/14 09:14:29;;;;;;;62.83;34.75;;;;;;;;;;5036436;28;20052;-78
2021/12/14 09:16:57;;;;;;;65.70;36.22;;;;;;;;;;5041922;28;20029;-78
2021/12/14 09:19:25;;;;;;;64.88;35.95;;;;;;;;;;5038596;28;20032;-77
2021/12/14 09:21:53;;;;;;;64.97;36.45;;;;;;;;;;5035867;28;20038;-77
2021/12/14 09:24:20;;;;;;;75.95;36.40;;;;;;;;;;5036634;28;20119;-79
2021/12/14 09:26:48;;;;;;;64.43;35.40;;;;;;;;;;5036672;28;20032;-77
2021/12/14 09:29:16;;;;;;;66.28;35.35;;;;;;;;;;5045270;28;20026;-79
2021/12/14 09:31:42;;;;;;;66.97;36.00;;;;;;;;;;5048231;28;20090;-79
2021/12/14 09:34:11;;;;;;;74.78;37.45;;;;;;;;;;5047080;28;20076;-77
2021/12/14 09:36:37;;;;;;;67.45;37.35;;;;;;;;;;5039984;28;20116;-78
2021/12/14 09:39:09;;;;;;;71.55;37.88;;;;;;;;;;5037190;28;20522;-77
2021/12/14 09:41:36;;;;;;;69.75;37.53;;;;;;;;;;5035738;28;20029;-77
2021/12/14 09:44:05;;;;;;;71.20;38.15;;;;;;;;;;5035572;28;20471;-77
2021/12/14 09:46:31;;;;;;;73.60;37.97;;;;;;;;;;5034984;28;20426;-77
2021/12/14 09:49:00;;;;;;;71.38;37.78;;;;;;;;;;5036777;28;20029;-78
2021/12/14 09:51:30;;;;;;;73.55;38.67;;;;;;;;;;5036648;28;20048;-78
2021/12/14 09:53:57;;;;;;;78.15;41.10;;;;;;;;;;5039177;28;20048;-76
2021/12/14 09:56:24;;;;;;;76.70;39.22;;;;;;;;;;5037115;28;20071;-78
2021/12/14 09:58:52;;;;;;;79.72;40.03;;;;;;;;;;5036532;28;20059;-78
2021/12/14 10:01:18;;;;;;;83.15;40.40;;;;;;;;;;5036321;28;20034;-76
2021/12/14 10:03:45;;;;;;;93.93;45.60;;;;;;;;;;5036961;28;20032;-78
2021/12/14 10:06:13;;;;;;;79.28;41.28;;;;;;;;;;5037921;28;20036;-80
2021/12/14 10:08:42;;;;;;;77.13;39.42;;;;;;;;;;5040755;28;20030;-78
2021/12/14 10:11:23;;;;;;;75.13;38.85;;;;;;;;;;5042689;28;20090;-79
2021/12/14 10:13:50;;;;;;;80.70;38.65;;;;;;;;;;5042476;28;20022;-78
2021/12/14 10:16:17;;;;;;;77.05;39.40;;;;;;;;;;5039720;28;20085;-78
2021/12/14 10:18:46;;;;;;;74.68;37.58;;;;;;;;;;5035018;28;20028;-79
2021/12/14 10:21:21;;;;;;;74.30;37.85;;;;;;;;;;5033156;28;20033;-78
2021/12/14 10:23:48;;;;;;;81.93;38.85;;;;;;;;;;5033032;28;20037;-76
2021/12/14 10:26:14;;;;;;;71.55;36.83;;;;;;;;;;5035178;28;20037;-78
2021/12/14 10:28:41;;;;;;;80.05;39.58;;;;;;;;;;5035176;28;20492;-76
2021/12/14 10:31:13;;;;;;;71.70;37.08;;;;;;;;;;5035285;28;20036;-82
2021/12/14 10:33:39;;;;;;;73.50;38.03;;;;;;;;;;5035276;28;20569;-78
2021/12/14 10:36:18;;;;;;;75.78;38.15;;;;;;;;;;5034744;28;20026;-78
2021/12/14 10:39:05;;;;;;;70.40;37.33;;;;;;;;;;5039930;28;20025;-77
2021/12/14 10:44:14;;;;;;;74.82;37.05;;;;;;;;;;5035356;28;20498;-77
2021/12/14 10:46:45;;;;;;;67.88;36.90;;;;;;;;;;5039193;28;20026;-80
2021/12/14 10:49:12;;;;;;;68.75;35.47;;;;;;;;;;5037069;28;20022;-78
2021/12/14 10:51:39;;;;;;;76.57;36.88;;;;;;;;;;5039054;28;20017;-83
2021/12/14 10:54:09;;;;;;;64.30;35.42;;;;;;;;;;5040257;28;20078;-83
2021/12/14 10:56:39;;;;;;;67.53;34.42;;;;;;;;;;5039507;28;20022;-80
2021/12/14 10:59:05;;;;;;;69.00;35.10;;;;;;;;;;5050520;28;20025;-84
2021/12/14 11:01:35;;;;;;;66.70;34.45;;;;;;;;;;5052785;28;20032;-83
2021/12/14 11:04:06;;;;;;;69.43;35.75;;;;;;;;;;5040593;28;20021;-82
2021/12/14 11:06:35;;;;;;;65.32;34.88;;;;;;;;;;5052658;28;20033;-80
2021/12/14 11:11:37;;;;;;;66.47;35.17;;;;;;;;;;5051751;28;20059;-84
2021/12/14 11:14:05;;;;;;;64.47;34.53;;;;;;;;;;5051109;28;20029;-81
2021/12/14 11:18:08;;;;;;;67.82;35.50;;;;;;;;;;5046924;28;20045;-80
2021/12/14 11:19:31;;;;;;;63.50;35.03;;;;;;;;;;5046235;28;20057;-80
2021/12/14 11:22:16;;;;;;;67.93;35.97;;;;;;;;;;5048825;28;20474;-81
2021/12/14 11:24:42;;;;;;;;;;;;;;;;;;5060693;23;20076;-77
2021/12/14 11:27:17;;;;;;;68.03;35.78;;;;;;;;;;5046649;28;19913;-78
2021/12/14 11:29:43;;;;;;;67.38;35.67;;;;;;;;;;5053454;28;20029;-79
2021/12/14 11:32:15;;;;;;;69.90;35.70;;;;;;;;;;5048278;28;20029;-78
2021/12/14 11:34:41;;;;;;;67.60;35.65;;;;;;;;;;5048188;28;20081;-78
2021/12/14 11:37:14;;;;;;;69.43;36.47;;;;;;;;;;5046369;28;20060;-78
2021/12/14 11:39:42;;;;;;;67.03;36.17;;;;;;;;;;5047397;28;20028;-78
2021/12/14 11:42:10;;;;;;;66.25;35.78;;;;;;;;;;5046779;28;20096;-80
2021/12/14 11:44:41;;;;;;;66.03;35.30;;;;;;;;;;5045770;28;20044;-81
2021/12/14 11:47:07;;;;;;;66.28;36.25;;;;;;;;;;5045931;28;20037;-80
2021/12/14 11:49:42;;;;;;;67.95;35.38;;;;;;;;;;5046616;28;20111;-79
2021/12/14 11:52:08;;;;;;;61.60;33.58;;;;;;;;;;5047244;28;20048;-78
2021/12/14 11:54:42;;;;;;;61.10;33.55;;;;;;;;;;5047320;28;20048;-79
2021/12/14 11:57:08;;;;;;;67.93;36.15;;;;;;;;;;5049890;28;20033;-79
2021/12/14 11:59:34;;;;;;;64.13;34.53;;;;;;;;;;5049397;28;20034;-79
2021/12/14 12:02:01;;;;;;;57.88;32.40;;;;;;;;;;5046476;28;20064;-79
2021/12/14 12:04:34;;;;;;;60.50;33.13;;;;;;;;;;5044864;28;20029;-79
2021/12/14 12:09:35;;;;;;;60.78;34.03;;;;;;;;;;5044694;28;20087;-79
2021/12/14 12:12:07;;;;;;;61.83;33.47;;;;;;;;;;5045848;28;20017;-78
2021/12/14 12:14:36;;;;;;;61.50;33.22;;;;;;;;;;5050620;28;20018;-79
2021/12/14 12:17:20;;;;;;;73.35;39.40;;;;;;;;;;5046602;28;20033;-79
2021/12/14 12:20:05;;;;;;;66.53;37.03;;;;;;;;;;5043805;28;20075;-79
2021/12/14 12:22:34;;;;;;;64.93;34.80;;;;;;;;;;5043883;28;20149;-79
2021/12/14 12:25:01;;;;;;;73.20;36.47;;;;;;;;;;5045494;28;20092;-85
2021/12/14 12:27:30;;;;;;;66.90;35.08;;;;;;;;;;5045274;28;20033;-80
2021/12/14 12:30:06;;;;;;;64.72;35.72;;;;;;;;;;5046929;28;20014;-79
2021/12/14 12:32:33;;;;;;;55.78;31.05;;;;;;;;;;5048685;28;20080;-80
2021/12/14 12:34:59;;;;;;;59.30;30.92;;;;;;;;;;5047550;28;20061;-79
2021/12/14 12:37:40;;;;;;;56.10;31.88;;;;;;;;;;5045590;28;20030;-80
2021/12/14 12:40:08;;;;;;;57.13;30.55;;;;;;;;;;5047038;28;20033;-79
2021/12/14 12:42:34;;;;;;;54.35;28.77;;;;;;;;;;5042383;28;20048;-78
2021/12/14 12:45:02;;;;;;;54.13;29.60;;;;;;;;;;5056896;28;20017;-79
2021/12/14 12:47:28;;;;;;;55.28;29.30;;;;;;;;;;5039404;28;20520;-77
2021/12/14 12:49:56;;;;;;;52.22;29.80;;;;;;;;;;5040396;28;20029;-79
2021/12/14 12:52:26;;;;;;;49.17;27.67;;;;;;;;;;5044246;28;20029;-79
2021/12/14 12:54:56;;;;;;;53.60;31.10;;;;;;;;;;5043114;28;20047;-79
2021/12/14 12:57:32;;;;;;;116.65;67.68;;;;;;;;;;5042098;28;20032;-79
2021/12/14 13:00:12;;;;;;;62.53;32.50;;;;;;;;;;5039525;28;20056;-77
2021/12/14 13:02:42;;;;;;;43.50;24.77;;;;;;;;;;5040217;28;20060;-79
2021/12/14 13:05:10;;;;;;;42.17;23.15;;;;;;;;;;5041619;28;20033;-79
2021/12/14 13:07:41;;;;;;;37.45;22.67;;;;;;;;;;5042441;28;20127;-79
2021/12/14 13:10:10;;;;;;;41.45;24.30;;;;;;;;;;5056271;28;20029;-79
2021/12/14 13:12:39;;;;;;;49.30;25.10;;;;;;;;;;5057417;28;20049;-77
2021/12/14 13:15:06;;;;;;;42.55;24.85;;;;;;;;;;5052168;28;20467;-80
2021/12/14 13:17:32;;;;;;;44.78;25.25;;;;;;;;;;5048532;28;20040;-78
2021/12/14 13:19:59;;;;;;;44.95;25.42;;;;;;;;;;5040767;28;20043;-81
2021/12/14 13:22:25;;;;;;;44.53;24.80;;;;;;;;;;5054648;28;20033;-78
2021/12/14 13:24:51;;;;;;;52.72;29.65;;;;;;;;;;5057524;28;20026;-77
2021/12/14 13:27:17;;;;;;;45.58;25.15;;;;;;;;;;5051801;28;20072;-79
2021/12/14 13:29:51;;;;;;;46.22;25.58;;;;;;;;;;5054283;28;20018;-78
2021/12/14 13:32:17;;;;;;;38.17;21.80;;;;;;;;;;5053190;28;20053;-78
2021/12/14 13:34:43;;;;;;;36.53;20.02;;;;;;;;;;5050870;28;20033;-79
2021/12/14 13:37:10;;;;;;;37.85;20.65;;;;;;;;;;5045822;28;20033;-77
2021/12/14 13:39:37;;;;;;;34.88;20.02;;;;;;;;;;5046591;28;20025;-79
2021/12/14 13:42:06;;;;;;;37.35;20.20;;;;;;;;;;5047357;28;20029;-79
2021/12/14 13:44:34;;;;;;;30.38;18.40;;;;;;;;;;5039950;28;20517;-79
2021/12/14 13:47:01;;;;;;;35.85;19.75;;;;;;;;;;5040319;28;20032;-80
2021/12/14 13:49:28;;;;;;;40.08;20.73;;;;;;;;;;5041564;28;20599;-79
2021/12/14 13:51:54;;;;;;;38.00;19.60;;;;;;;;;;5045669;28;20068;-77
2021/12/14 13:54:21;;;;;;;35.20;18.83;;;;;;;;;;5055046;28;20082;-80
2021/12/14 13:56:48;;;;;;;34.80;19.65;;;;;;;;;;5046017;28;20030;-80
2021/12/14 13:59:15;;;;;;;34.28;18.67;;;;;;;;;;5041234;28;20036;-78
2021/12/14 14:02:01;;;;;;;33.45;19.15;;;;;;;;;;5038844;28;20109;-78
2021/12/14 14:04:30;;;;;;;39.28;19.65;;;;;;;;;;5038249;28;20029;-78
2021/12/14 14:06:56;;;;;;;43.45;23.50;;;;;;;;;;5037321;28;20028;-78
2021/12/14 14:09:23;;;;;;;30.90;18.20;;;;;;;;;;5038603;28;20026;-79
2021/12/14 14:11:49;;;;;;;33.35;18.80;;;;;;;;;;5038495;28;20084;-77
2021/12/14 14:14:15;;;;;;;29.88;16.98;;;;;;;;;;5040636;28;20030;-79
2021/12/14 14:16:46;;;;;;;30.60;16.90;;;;;;;;;;5045995;28;20086;-78
2021/12/14 14:19:13;;;;;;;32.53;16.70;;;;;;;;;;5048775;28;20028;-77
2021/12/14 14:21:39;;;;;;;31.98;16.88;;;;;;;;;;5046790;28;20026;-77
2021/12/14 14:24:17;;;;;;;35.70;18.63;;;;;;;;;;5046618;28;20043;-78
2021/12/14 14:26:43;;;;;;;27.77;15.82;;;;;;;;;;5044696;28;20017;-78
2021/12/14 14:29:09;;;;;;;34.03;17.35;;;;;;;;;;5041115;28;20089;-78
2021/12/14 14:31:46;;;;;;;30.80;15.70;;;;;;;;;;5046662;28;20032;-77
2021/12/14 14:34:28;;;;;;;29.05;15.57;;;;;;;;;;5047200;28;20013;-78
2021/12/14 14:37:03;;;;;;;28.00;15.38;;;;;;;;;;5043314;28;20025;-78
2021/12/14 14:39:31;;;;;;;30.60;16.45;;;;;;;;;;5037925;28;20022;-79
2021/12/14 14:41:59;;;;;;;29.17;15.77;;;;;;;;;;5040866;28;20052;-79
2021/12/14 14:44:36;;;;;;;25.55;14.73;;;;;;;;;;5042542;28;20044;-77
2021/12/14 14:47:01;;;;;;;25.40;14.55;;;;;;;;;;5039063;28;20023;-80
2021/12/14 14:49:40;;;;;;;25.80;14.70;;;;;;;;;;5041280;28;20025;-80
2021/12/14 14:52:07;;;;;;;28.58;15.07;;;;;;;;;;5040390;28;20052;-80
2021/12/14 14:54:33;;;;;;;31.33;17.45;;;;;;;;;;5041009;28;20459;-78
2021/12/14 14:57:11;;;;;;;29.13;16.13;;;;;;;;;;5040901;28;20037;-77
2021/12/14 14:59:42;;;;;;;30.25;15.43;;;;;;;;;;5041388;28;20043;-78
2021/12/14 15:02:09;;;;;;;24.38;14.55;;;;;;;;;;5041161;28;20042;-78
2021/12/14 15:04:54;;;;;;;28.17;15.60;;;;;;;;;;5046033;28;20036;-78